Time;durP1;ratioP1;P1;durP2;ratioP2;P2;SDS_P1;SDS_P2;PMS_P1;PMS_P2;Temp;Humidity;BMP_temperature;BMP_pressure;BME280_temperature;BME280_humidity;BME280_pressure;Samples;Min_cycle;Max_cycle;Signal;HPM_P1;HPM_P2
2022/06/19 05:02:20;;;;;;;11.00;2.83;;;23.00;74.60;;;;;;5465930;23;20053;-76
2022/06/19 05:04:49;;;;;;;11.15;3.40;;;23.20;74.30;;;;;;4908342;29;20088;-75
2022/06/19 05:07:15;;;;;;;11.20;3.25;;;23.20;74.00;;;;;;4908339;29;20044;-73
2022/06/19 05:09:41;;;;;;;10.48;2.75;;;23.30;74.10;;;;;;4908589;29;20305;-76
2022/06/19 05:12:07;;;;;;;14.45;3.88;;;23.30;73.80;;;;;;4908980;29;20029;-74
2022/06/19 05:14:33;;;;;;;12.30;3.33;;;23.40;73.50;;;;;;4908208;29;20064;-74
2022/06/19 05:16:58;;;;;;;15.23;3.35;;;23.50;73.60;;;;;;4908996;29;20048;-75
2022/06/19 05:19:25;;;;;;;11.73;3.17;;;23.50;73.40;;;;;;4907521;29;20056;-77
2022/06/19 05:21:51;;;;;;;8.48;2.92;;;23.60;73.30;;;;;;4907909;29;20044;-75
2022/06/19 05:24:16;;;;;;;8.32;2.90;;;23.70;73.10;;;;;;4908149;29;20025;-74
2022/06/19 05:26:42;;;;;;;10.88;2.85;;;23.80;73.00;;;;;;4907733;29;20048;-74
2022/06/19 05:29:08;;;;;;;13.18;3.00;;;24.00;72.70;;;;;;4908519;29;20036;-75
2022/06/19 05:31:37;;;;;;;19.55;3.15;;;24.00;72.40;;;;;;4903960;29;20040;-76
2022/06/19 05:34:03;;;;;;;11.02;3.15;;;24.20;72.10;;;;;;4903987;29;20052;-75
2022/06/19 05:36:29;;;;;;;13.25;3.45;;;24.30;72.00;;;;;;4907012;29;20033;-75
2022/06/19 05:38:56;;;;;;;18.50;3.75;;;24.30;71.30;;;;;;4906395;29;20344;-74
2022/06/19 05:41:23;;;;;;;10.50;3.13;;;24.40;71.20;;;;;;4905833;29;20041;-75
2022/06/19 05:43:49;;;;;;;15.43;3.80;;;24.40;71.90;;;;;;4905487;29;20028;-76
2022/06/19 05:46:17;;;;;;;10.75;2.80;;;24.50;71.00;;;;;;4906473;29;20230;-74
2022/06/19 05:48:43;;;;;;;15.63;3.30;;;24.50;70.90;;;;;;4905332;29;20044;-76
2022/06/19 05:51:12;;;;;;;11.65;3.30;;;24.50;71.10;;;;;;4906213;29;20045;-75
2022/06/19 05:53:47;;;;;;;13.60;3.60;;;24.60;71.50;;;;;;4905571;29;20241;-76
2022/06/19 05:56:14;;;;;;;13.90;3.63;;;24.70;71.60;;;;;;4906808;29;20047;-74
2022/06/19 05:58:41;;;;;;;12.32;2.88;;;24.80;71.30;;;;;;4906368;29;20048;-75
2022/06/19 06:01:08;;;;;;;10.13;3.17;;;24.90;71.60;;;;;;4906275;29;20112;-75
2022/06/19 06:03:34;;;;;;;12.48;3.70;;;24.90;71.50;;;;;;4905467;29;20052;-76
2022/06/19 06:06:01;;;;;;;9.93;3.35;;;25.00;71.30;;;;;;4905769;29;20114;-75
2022/06/19 06:08:28;;;;;;;10.73;3.22;;;25.10;71.10;;;;;;4906463;29;20226;-74
2022/06/19 06:10:53;;;;;;;12.43;3.33;;;25.10;71.10;;;;;;4905962;29;20204;-75
2022/06/19 06:13:19;;;;;;;14.52;2.80;;;25.20;71.10;;;;;;4908992;29;20031;-75
2022/06/19 06:15:46;;;;;;;12.00;3.25;;;25.40;71.00;;;;;;4912479;29;20065;-74
2022/06/19 06:18:12;;;;;;;17.55;3.50;;;25.50;70.70;;;;;;4913584;29;20100;-75
2022/06/19 06:20:38;;;;;;;12.38;3.45;;;25.60;70.70;;;;;;4913077;29;20059;-76
2022/06/19 06:23:04;;;;;;;13.48;3.42;;;25.60;70.30;;;;;;4906053;29;20060;-75
2022/06/19 06:25:30;;;;;;;12.80;2.97;;;25.60;70.40;;;;;;4906073;29;20088;-75
2022/06/19 06:27:56;;;;;;;11.75;3.80;;;25.70;70.50;;;;;;4904859;29;20044;-74
2022/06/19 06:30:22;;;;;;;14.63;3.67;;;25.80;70.50;;;;;;4905798;29;20024;-74
2022/06/19 06:32:47;;;;;;;16.33;3.72;;;25.80;70.20;;;;;;4905758;29;20303;-75
2022/06/19 06:35:13;;;;;;;11.13;3.70;;;25.90;70.40;;;;;;4905842;29;20088;-74
2022/06/19 06:37:39;;;;;;;11.25;3.40;;;26.00;69.90;;;;;;4906186;29;20040;-75
2022/06/19 06:40:07;;;;;;;16.42;3.88;;;26.10;69.60;;;;;;4905218;29;20020;-75
2022/06/19 06:42:33;;;;;;;15.52;3.38;;;26.30;69.50;;;;;;4905794;29;20059;-76
2022/06/19 06:44:59;;;;;;;12.90;3.28;;;26.50;69.00;;;;;;4905451;29;20060;-76
2022/06/19 06:47:25;;;;;;;15.10;3.75;;;26.70;68.80;;;;;;4904988;29;20052;-77
2022/06/19 06:49:51;;;;;;;15.77;3.92;;;26.90;68.40;;;;;;4904372;29;20485;-75
2022/06/19 06:52:17;;;;;;;13.90;3.38;;;27.10;67.90;;;;;;4905735;29;20044;-76
2022/06/19 06:54:43;;;;;;;12.20;3.25;;;27.30;67.30;;;;;;4905414;29;20036;-77
2022/06/19 06:57:09;;;;;;;10.85;3.22;;;27.60;67.60;;;;;;4904606;29;20075;-75
2022/06/19 06:59:36;;;;;;;10.55;3.30;;;27.90;67.00;;;;;;4905819;29;20052;-75
2022/06/19 07:02:03;;;;;;;10.52;3.20;;;28.20;66.20;;;;;;4904825;29;20275;-75
2022/06/19 07:04:29;;;;;;;14.50;3.17;;;28.50;66.00;;;;;;4905672;29;20088;-74
2022/06/19 07:06:55;;;;;;;11.65;3.03;;;28.80;65.60;;;;;;4888449;29;20036;-74
2022/06/19 07:09:21;;;;;;;11.15;3.28;;;29.00;65.10;;;;;;4905708;29;20060;-74
2022/06/19 07:11:47;;;;;;;14.57;4.35;;;29.20;64.80;;;;;;4904323;29;20060;-74
2022/06/19 07:14:14;;;;;;;14.70;3.40;;;29.10;65.10;;;;;;4905864;29;20041;-74
2022/06/19 07:16:43;;;;;;;10.30;3.03;;;29.00;65.80;;;;;;4905159;29;20215;-75
2022/06/19 07:19:09;;;;;;;13.40;3.30;;;28.80;65.40;;;;;;4905888;29;20332;-75
2022/06/19 07:21:36;;;;;;;11.85;3.60;;;28.80;65.60;;;;;;4904794;29;20306;-75
2022/06/19 07:24:02;;;;;;;12.00;2.85;;;28.70;65.30;;;;;;4905465;29;20065;-75
2022/06/19 07:26:28;;;;;;;13.82;4.03;;;28.40;66.10;;;;;;4905609;29;20059;-74
2022/06/19 07:28:54;;;;;;;15.68;3.92;;;28.20;67.00;;;;;;4905254;29;20027;-74
2022/06/19 07:31:20;;;;;;;14.73;4.35;;;28.20;67.60;;;;;;4905157;29;20068;-74
2022/06/19 07:33:46;;;;;;;13.13;4.25;;;28.10;68.10;;;;;;4905182;29;20051;-75
2022/06/19 07:36:15;;;;;;;18.02;3.50;;;27.90;68.90;;;;;;4905538;29;20040;-75
2022/06/19 07:38:41;;;;;;;12.02;3.50;;;27.90;69.10;;;;;;4905534;29;20277;-77
2022/06/19 07:41:07;;;;;;;11.35;3.30;;;28.00;69.10;;;;;;4904030;29;20080;-75
2022/06/19 07:43:33;;;;;;;12.48;3.25;;;28.10;68.60;;;;;;4905817;29;20457;-76
2022/06/19 07:45:58;;;;;;;14.02;3.60;;;28.10;68.20;;;;;;4904736;29;20364;-78
2022/06/19 07:51:08;;;;;;;17.58;3.97;;;28.00;68.40;;;;;;4904582;29;20096;-75
2022/06/19 07:53:34;;;;;;;14.27;4.13;;;28.20;68.10;;;;;;4905056;29;20041;-76
2022/06/19 07:56:00;;;;;;;10.88;3.15;;;28.20;68.10;;;;;;4905005;29;20099;-76
2022/06/19 07:58:26;;;;;;;12.90;3.70;;;28.40;68.30;;;;;;4905282;29;20108;-75
2022/06/19 08:00:52;;;;;;;11.80;3.60;;;28.50;68.20;;;;;;4906539;29;20045;-75
2022/06/19 08:03:18;;;;;;;13.45;3.65;;;28.80;67.70;;;;;;4908905;29;20124;-74
2022/06/19 08:05:46;;;;;;;9.43;4.00;;;29.00;67.00;;;;;;4907945;29;20095;-77
2022/06/19 08:08:20;;;;;;;15.38;4.40;;;29.20;66.50;;;;;;4908789;29;20051;-76
2022/06/19 08:10:50;;;;;;;12.13;2.97;;;29.30;66.40;;;;;;4908465;29;20040;-74
2022/06/19 08:13:20;;;;;;;13.90;4.30;;;29.50;66.30;;;;;;4908528;29;20044;-76
2022/06/19 08:15:55;;;;;;;13.98;3.90;;;29.70;66.30;;;;;;4907811;29;20309;-76
2022/06/19 08:18:21;;;;;;;14.13;3.70;;;29.80;66.10;;;;;;4908622;29;20217;-75
2022/06/19 08:20:48;;;;;;;9.93;4.00;;;29.90;65.70;;;;;;4907138;29;20036;-78
2022/06/19 08:23:14;;;;;;;13.90;3.80;;;30.10;65.50;;;;;;4908615;29;20028;-77
2022/06/19 08:25:41;;;;;;;14.68;3.97;;;30.20;65.20;;;;;;4907627;29;20184;-74
2022/06/19 08:28:07;;;;;;;16.02;4.22;;;30.40;64.90;;;;;;4907998;29;20063;-77
2022/06/19 08:30:37;;;;;;;16.60;3.85;;;30.60;65.50;;;;;;4907938;29;20036;-76
2022/06/19 08:33:04;;;;;;;13.38;4.32;;;30.90;64.70;;;;;;4907881;29;20330;-77
2022/06/19 08:35:33;;;;;;;15.95;4.15;;;30.90;64.00;;;;;;4907844;29;20037;-75
2022/06/19 08:38:04;;;;;;;9.77;3.47;;;31.00;64.00;;;;;;4906145;29;20059;-77
2022/06/19 08:40:45;;;;;;;12.48;4.20;;;31.30;64.40;;;;;;4902693;29;20032;-78
2022/06/19 08:43:39;;;;;;;14.65;4.22;;;31.40;64.00;;;;;;4907708;29;20116;-78
2022/06/19 08:46:11;;;;;;;9.75;3.90;;;31.50;63.90;;;;;;4907393;29;20045;-78
2022/06/19 08:48:55;;;;;;;11.73;4.10;;;31.70;63.50;;;;;;4907388;29;20035;-77
2022/06/19 08:51:44;;;;;;;13.75;4.78;;;31.90;63.40;;;;;;4907129;29;20088;-76
2022/06/19 08:54:13;;;;;;;17.08;4.07;;;32.00;63.20;;;;;;4903109;29;20044;-76
2022/06/19 08:56:58;;;;;;;11.52;4.43;;;32.20;63.10;;;;;;4906187;29;20044;-77
2022/06/19 08:59:47;;;;;;;13.60;4.57;;;32.30;62.50;;;;;;4906612;29;20049;-78
2022/06/19 09:02:41;;;;;;;11.68;4.53;;;32.40;62.90;;;;;;4890965;29;20051;-77
2022/06/19 09:05:38;;;;;;;15.85;5.65;;;32.40;62.00;;;;;;4888152;29;20100;-77
2022/06/19 09:08:50;;;;;;;14.70;5.53;;;32.60;60.90;;;;;;4887561;29;20063;-75
2022/06/19 09:11:29;;;;;;;10.40;5.28;;;32.70;60.60;;;;;;4905721;29;20029;-75
2022/06/19 09:14:23;;;;;;;12.23;5.63;;;32.90;54.60;;;;;;4906869;29;20032;-75
2022/06/19 09:17:08;;;;;;;15.25;5.72;;;33.30;51.60;;;;;;4907049;29;20059;-76
2022/06/19 09:20:04;;;;;;;10.23;5.50;;;33.70;51.20;;;;;;4907404;29;20040;-77
2022/06/19 09:22:39;;;;;;;13.18;5.50;;;33.90;50.40;;;;;;4907477;29;20040;-75
2022/06/19 09:25:26;;;;;;;9.50;5.82;;;34.00;49.10;;;;;;4906616;29;20038;-76
2022/06/19 09:28:12;;;;;;;15.38;5.20;;;34.00;49.30;;;;;;4906947;29;20095;-76
2022/06/19 09:30:59;;;;;;;13.80;5.20;;;34.20;48.80;;;;;;4906478;29;20051;-76
2022/06/19 09:33:59;;;;;;;8.73;5.20;;;34.30;49.10;;;;;;4907251;29;20104;-75
2022/06/19 09:37:05;;;;;;;13.93;5.05;;;34.30;48.20;;;;;;4905637;29;20049;-77
2022/06/19 09:39:50;;;;;;;9.55;4.47;;;34.40;47.70;;;;;;4906887;29;20096;-76
2022/06/19 09:42:20;;;;;;;10.43;5.00;;;34.40;47.80;;;;;;4906514;29;20037;-77
2022/06/19 09:45:13;;;;;;;9.88;5.00;;;34.40;47.60;;;;;;4907003;29;20036;-77
2022/06/19 09:47:51;;;;;;;12.25;4.88;;;34.50;48.00;;;;;;4906200;29;20338;-79
2022/06/19 09:50:21;;;;;;;9.40;4.32;;;34.50;47.40;;;;;;4906500;29;20039;-76
2022/06/19 09:52:51;;;;;;;12.73;5.72;;;34.40;47.30;;;;;;4906559;29;20279;-76
2022/06/19 09:55:24;;;;;;;11.10;4.85;;;34.40;47.50;;;;;;4906429;29;20024;-77
2022/06/19 09:57:58;;;;;;;9.90;4.95;;;34.60;46.20;;;;;;4907587;29;20029;-77
2022/06/19 10:00:31;;;;;;;14.07;4.50;;;34.60;46.50;;;;;;4907862;29;20040;-76
2022/06/19 10:03:39;;;;;;;9.60;4.00;;;34.60;45.80;;;;;;4906645;29;20117;-77
2022/06/19 10:06:20;;;;;;;8.65;4.30;;;34.60;45.70;;;;;;4902679;29;20368;-76
2022/06/19 10:08:55;;;;;;;10.68;4.25;;;34.50;46.10;;;;;;4906628;29;20302;-77
2022/06/19 10:11:27;;;;;;;10.85;4.07;;;34.60;46.40;;;;;;4905225;29;20028;-76
2022/06/19 10:14:25;;;;;;;14.15;4.65;;;34.80;45.60;;;;;;4904849;29;20033;-76
2022/06/19 10:16:56;;;;;;;13.20;4.70;;;34.90;45.50;;;;;;4904468;29;20064;-76
2022/06/19 10:19:44;;;;;;;11.20;4.65;;;34.90;45.60;;;;;;4906007;29;20207;-77
2022/06/19 10:22:41;;;;;;;14.30;5.38;;;34.90;45.80;;;;;;4905196;29;20092;-78
2022/06/19 10:25:25;;;;;;;13.18;4.70;;;34.90;46.30;;;;;;4902462;29;20041;-77
2022/06/19 10:28:05;;;;;;;16.40;5.55;;;34.90;46.20;;;;;;4906200;29;20067;-76
2022/06/19 10:30:45;;;;;;;14.05;5.50;;;35.00;46.40;;;;;;4905437;29;20044;-76
2022/06/19 10:33:41;;;;;;;9.52;4.75;;;35.10;46.50;;;;;;4905537;29;20037;-77
2022/06/19 10:36:19;;;;;;;11.55;4.80;;;35.30;46.40;;;;;;4904632;29;20140;-77
2022/06/19 10:39:23;;;;;;;10.57;4.82;;;35.30;45.50;;;;;;4905842;29;20262;-76
2022/06/19 10:42:20;;;;;;;11.60;4.80;;;35.30;45.10;;;;;;4897922;29;20048;-76
2022/06/19 10:45:08;;;;;;;15.18;5.28;;;35.40;45.70;;;;;;4905984;29;20024;-77
2022/06/19 10:47:39;;;;;;;15.38;4.80;;;35.60;45.70;;;;;;4905785;29;20036;-77
2022/06/19 10:50:24;;;;;;;11.55;5.03;;;35.70;45.30;;;;;;4905495;29;20333;-77
2022/06/19 10:53:26;;;;;;;10.77;5.13;;;35.70;45.60;;;;;;4905838;29;20032;-75
2022/06/19 10:56:10;;;;;;;14.43;5.20;;;35.60;45.40;;;;;;4912265;29;20031;-75
2022/06/19 10:58:36;;;;;;;14.43;5.18;;;35.70;45.30;;;;;;4910576;29;20042;-77
2022/06/19 11:01:06;;;;;;;14.65;5.00;;;35.90;45.70;;;;;;4909137;29;20047;-75
2022/06/19 11:06:49;;;;;;;15.02;5.38;;;36.10;45.00;;;;;;4905437;29;20052;-75
2022/06/19 11:09:20;;;;;;;9.15;4.03;;;36.00;44.80;;;;;;4905037;29;20307;-76
2022/06/19 11:11:48;;;;;;;10.60;4.07;;;36.20;45.00;;;;;;4905809;29;20055;-75
2022/06/19 11:14:27;;;;;;;15.98;4.50;;;36.30;44.80;;;;;;4905186;29;20033;-76
2022/06/19 11:17:00;;;;;;;12.30;4.45;;;36.40;44.80;;;;;;4905123;29;20047;-76
2022/06/19 11:19:40;;;;;;;10.73;4.18;;;36.40;44.40;;;;;;4905528;29;20041;-76
2022/06/19 11:22:38;;;;;;;12.05;4.60;;;36.60;44.60;;;;;;4905001;29;20043;-77
2022/06/19 11:25:19;;;;;;;13.32;4.20;;;36.70;44.00;;;;;;4905110;29;20307;-77
2022/06/19 11:27:54;;;;;;;9.30;4.57;;;36.90;44.00;;;;;;4904632;29;20044;-77
2022/06/19 11:30:36;;;;;;;9.90;4.43;;;36.90;44.20;;;;;;4903356;29;20279;-76
2022/06/19 11:33:07;;;;;;;10.93;4.88;;;36.90;43.60;;;;;;4903902;29;20040;-78
2022/06/19 11:35:46;;;;;;;12.68;4.55;;;36.80;44.00;;;;;;4907410;29;20255;-77
2022/06/19 11:38:12;;;;;;;10.63;4.63;;;37.00;44.20;;;;;;4908543;29;20203;-77
2022/06/19 11:40:42;;;;;;;11.60;5.80;;;37.80;43.10;;;;;;4908764;29;20326;-74
2022/06/19 11:43:26;;;;;;;12.30;4.53;;;38.30;43.60;;;;;;4908800;29;20040;-77
2022/06/19 11:46:03;;;;;;;10.93;4.07;;;38.80;42.50;;;;;;4907348;29;20041;-76
2022/06/19 11:48:29;;;;;;;14.00;4.90;;;39.30;41.60;;;;;;4908835;29;20039;-76
2022/06/19 11:50:56;;;;;;;12.25;4.53;;;39.60;42.00;;;;;;4907554;29;20017;-75
2022/06/19 11:53:40;;;;;;;13.25;4.05;;;40.10;41.70;;;;;;4908494;29;20079;-76
2022/06/19 11:56:19;;;;;;;13.23;4.35;;;40.70;41.20;;;;;;4908433;29;20077;-77
2022/06/19 11:58:52;;;;;;;12.38;3.88;;;41.10;40.50;;;;;;4907157;29;20040;-76
2022/06/19 12:01:20;;;;;;;11.50;4.28;;;40.90;40.60;;;;;;4907552;29;20327;-77
2022/06/19 12:03:52;;;;;;;10.07;3.85;;;41.30;40.80;;;;;;4908171;29;20052;-77
2022/06/19 12:06:37;;;;;;;12.82;4.03;;;41.80;40.50;;;;;;4908556;29;20095;-76
2022/06/19 12:09:07;;;;;;;11.57;3.83;;;42.20;40.10;;;;;;4907957;29;20028;-77
2022/06/19 12:12:01;;;;;;;10.95;3.50;;;42.60;40.00;;;;;;4908537;29;20302;-78
2022/06/19 12:14:46;;;;;;;9.10;3.80;;;42.90;39.60;;;;;;4908092;29;20048;-78
2022/06/19 12:17:20;;;;;;;12.32;3.92;;;42.00;39.70;;;;;;4907313;29;20056;-78
2022/06/19 12:19:54;;;;;;;12.82;4.13;;;42.30;39.70;;;;;;4908417;29;20032;-78
2022/06/19 12:22:41;;;;;;;13.23;3.92;;;42.90;39.20;;;;;;4907617;29;20053;-77
2022/06/19 12:25:13;;;;;;;;;;;43.70;39.20;;;;;;4907181;29;20032;-78
2022/06/19 12:27:45;;;;;;;11.65;3.90;;;43.90;38.90;;;;;;4908276;29;19932;-77
2022/06/19 12:30:20;;;;;;;10.27;3.67;;;44.30;38.60;;;;;;4907199;29;20251;-75
2022/06/19 12:32:49;;;;;;;9.25;3.30;;;44.50;38.40;;;;;;4908476;29;20048;-77
2022/06/19 12:35:27;;;;;;;11.70;3.65;;;44.50;38.40;;;;;;4906461;29;20390;-77
2022/06/19 12:37:52;;;;;;;13.43;4.03;;;44.30;38.30;;;;;;4907502;29;20036;-76
2022/06/19 12:40:23;;;;;;;9.82;4.13;;;44.10;38.30;;;;;;4907620;29;20065;-76
2022/06/19 12:43:02;;;;;;;9.80;3.85;;;43.70;38.60;;;;;;4908240;29;20124;-77
2022/06/19 12:45:48;;;;;;;10.18;3.95;;;43.70;38.60;;;;;;4905034;29;20052;-77
2022/06/19 12:48:45;;;;;;;8.80;3.72;;;44.90;38.30;;;;;;4904320;29;20040;-76
2022/06/19 12:51:15;;;;;;;9.77;3.53;;;45.80;37.90;;;;;;4904638;29;20032;-77
2022/06/19 12:54:02;;;;;;;10.68;3.72;;;45.80;37.30;;;;;;4907894;29;20081;-77
2022/06/19 12:56:34;;;;;;;;;;;45.00;37.90;;;;;;4891811;29;20045;-76
2022/06/19 12:59:18;;;;;;;12.38;4.32;;;45.80;37.80;;;;;;4902280;29;19978;-75
2022/06/19 13:01:51;;;;;;;9.07;3.42;;;47.10;37.40;;;;;;4906938;29;20071;-75
2022/06/19 13:04:39;;;;;;;10.75;3.78;;;47.90;37.00;;;;;;4907124;29;20108;-74
2022/06/19 13:07:33;;;;;;;8.23;3.47;;;46.80;36.80;;;;;;4895782;29;20037;-75
2022/06/19 13:10:30;;;;;;;8.60;4.00;;;47.30;36.90;;;;;;4878372;29;20177;-74
2022/06/19 13:13:15;;;;;;;11.27;4.18;;;46.90;37.00;;;;;;4904951;29;20036;-75
2022/06/19 13:16:01;;;;;;;10.20;3.53;;;47.10;36.70;;;;;;4906861;29;20057;-75
2022/06/19 13:18:54;;;;;;;9.00;3.70;;;46.30;36.70;;;;;;4907041;29;20140;-76
2022/06/19 13:22:06;;;;;;;10.40;3.78;;;47.90;36.70;;;;;;4906732;29;20047;-74
2022/06/19 13:24:50;;;;;;;12.48;3.92;;;48.10;36.00;;;;;;4906426;29;20081;-76
2022/06/19 13:27:37;;;;;;;13.20;3.90;;;48.80;36.20;;;;;;4906918;29;20040;-77
2022/06/19 13:30:05;;;;;;;15.07;3.42;;;50.20;35.40;;;;;;4906866;29;20028;-76
2022/06/19 13:32:40;;;;;;;11.10;3.53;;;50.00;35.60;;;;;;4906899;29;20041;-77
2022/06/19 13:35:30;;;;;;;9.85;3.58;;;50.40;35.40;;;;;;4907098;29;20062;-76
2022/06/19 13:38:26;;;;;;;10.18;3.63;;;50.30;35.30;;;;;;4907289;29;20056;-76
2022/06/19 13:41:13;;;;;;;12.15;3.67;;;51.30;35.20;;;;;;4907185;29;20063;-74
2022/06/19 13:43:57;;;;;;;9.82;3.60;;;51.20;35.10;;;;;;4907231;29;20036;-74
2022/06/19 13:47:02;;;;;;;12.80;4.68;;;51.60;34.90;;;;;;4897434;29;20048;-75
2022/06/19 13:49:48;;;;;;;9.10;3.03;;;51.20;34.80;;;;;;4893191;29;20218;-74
2022/06/19 13:52:38;;;;;;;10.95;3.90;;;51.10;34.50;;;;;;4906457;29;20025;-75
2022/06/19 13:55:07;;;;;;;14.75;3.67;;;50.80;34.90;;;;;;4905584;29;20111;-74
2022/06/19 13:57:36;;;;;;;10.05;3.50;;;50.00;34.70;;;;;;4905421;29;20036;-75
2022/06/19 14:00:21;;;;;;;12.52;3.95;;;50.40;34.90;;;;;;4906578;29;20307;-74
2022/06/19 14:03:14;;;;;;;13.27;4.15;;;50.00;34.90;;;;;;4906408;29;20337;-76
2022/06/19 14:05:43;;;;;;;9.60;3.53;;;50.20;35.10;;;;;;4887685;29;20031;-75
2022/06/19 14:08:48;;;;;;;12.90;3.80;;;50.00;35.40;;;;;;4887649;29;20032;-75
2022/06/19 14:12:03;;;;;;;11.68;3.70;;;49.60;35.40;;;;;;4904469;29;20032;-77
2022/06/19 14:14:15;;;;;;;8.13;3.20;;;51.50;34.90;;;;;;4905884;29;20242;-76
2022/06/19 14:16:41;;;;;;;8.82;3.67;;;51.90;34.60;;;;;;4906082;29;20037;-78
2022/06/19 14:19:13;;;;;;;10.87;3.87;;;53.00;34.60;;;;;;4906318;29;20222;-78
2022/06/19 14:22:10;;;;;;;9.75;3.30;;;53.40;34.20;;;;;;4906250;29;20223;-76
2022/06/19 14:24:49;;;;;;;10.82;3.42;;;53.50;34.10;;;;;;4906180;29;20040;-75
2022/06/19 14:27:15;;;;;;;8.20;3.20;;;52.80;34.20;;;;;;4905570;29;20043;-75
2022/06/19 14:29:46;;;;;;;10.43;3.53;;;52.90;33.70;;;;;;4906608;29;20025;-76
2022/06/19 14:32:15;;;;;;;10.52;3.67;;;51.30;33.70;;;;;;4905450;29;20123;-75
2022/06/19 14:34:44;;;;;;;9.60;3.90;;;51.60;34.70;;;;;;4906352;29;20032;-76
2022/06/19 14:37:27;;;;;;;9.77;3.75;;;51.30;34.30;;;;;;4906293;29;20128;-76
2022/06/19 14:39:56;;;;;;;13.90;4.07;;;49.90;34.70;;;;;;4906053;29;20303;-75
2022/06/19 14:42:23;;;;;;;10.80;3.78;;;49.10;35.10;;;;;;4905501;29;20044;-75
2022/06/19 14:45:00;;;;;;;13.40;3.78;;;49.80;35.50;;;;;;4906163;29;20033;-76
2022/06/19 14:47:48;;;;;;;13.32;3.30;;;50.00;35.10;;;;;;4905010;29;20059;-75
2022/06/19 14:50:46;;;;;;;11.50;3.65;;;52.70;34.70;;;;;;4905595;29;20032;-75
2022/06/19 14:53:37;;;;;;;8.63;3.30;;;51.60;34.10;;;;;;4905734;29;20040;-76
2022/06/19 14:56:34;;;;;;;13.13;3.47;;;52.00;34.30;;;;;;4904514;29;20029;-74
2022/06/19 14:59:02;;;;;;;11.05;3.90;;;52.20;34.30;;;;;;4905688;29;20063;-75
2022/06/19 15:01:33;;;;;;;9.15;3.72;;;52.20;34.10;;;;;;4904522;29;20322;-76
2022/06/19 15:04:14;;;;;;;10.00;3.33;;;51.90;33.90;;;;;;4906516;29;20247;-74
2022/06/19 15:06:45;;;;;;;9.35;4.40;;;52.50;34.10;;;;;;4908566;29;20036;-74
2022/06/19 15:09:25;;;;;;;8.20;3.72;;;52.50;34.00;;;;;;4906961;29;20027;-76
2022/06/19 15:11:53;;;;;;;10.43;3.75;;;52.00;34.10;;;;;;4909839;29;20024;-74
2022/06/19 15:14:19;;;;;;;10.63;3.88;;;52.10;34.10;;;;;;4909302;29;20047;-76
2022/06/19 15:16:55;;;;;;;7.57;3.10;;;52.80;33.90;;;;;;4909040;29;20041;-76
2022/06/19 15:19:42;;;;;;;8.48;3.70;;;52.80;34.00;;;;;;4909230;29;20201;-76
2022/06/19 15:22:32;;;;;;;10.25;3.20;;;52.20;34.00;;;;;;4909121;29;20040;-76
2022/06/19 15:24:57;;;;;;;12.70;3.85;;;53.40;33.50;;;;;;4905852;29;20056;-76
2022/06/19 15:27:23;;;;;;;10.77;3.50;;;53.40;33.00;;;;;;4908649;29;20252;-76
2022/06/19 15:29:51;;;;;;;13.73;3.53;;;52.30;33.40;;;;;;4908975;29;20055;-76
2022/06/19 15:32:23;;;;;;;10.95;3.30;;;51.80;33.70;;;;;;4907773;29;20271;-76
2022/06/19 15:34:53;;;;;;;10.38;3.10;;;50.50;33.60;;;;;;4909205;29;20039;-75
2022/06/19 15:37:26;;;;;;;7.97;2.95;;;50.60;34.10;;;;;;4908111;29;20349;-75
2022/06/19 15:40:15;;;;;;;9.80;3.58;;;51.80;33.60;;;;;;4910235;29;20074;-75
2022/06/19 15:43:05;;;;;;;13.82;3.63;;;52.50;32.70;;;;;;4907152;29;20043;-75
2022/06/19 15:46:01;;;;;;;10.45;3.63;;;51.50;33.20;;;;;;4909656;29;20178;-75
2022/06/19 15:48:27;;;;;;;15.07;3.67;;;51.40;33.20;;;;;;4908545;29;20091;-76
2022/06/19 15:50:52;;;;;;;13.53;3.77;;;50.40;33.40;;;;;;4909260;29;20314;-75
2022/06/19 15:53:23;;;;;;;18.27;3.93;;;49.10;33.70;;;;;;4891792;29;20311;-76
2022/06/19 15:55:58;;;;;;;9.20;3.17;;;49.30;33.60;;;;;;4909166;29;20108;-76
2022/06/19 15:58:39;;;;;;;12.75;3.55;;;49.30;33.60;;;;;;4908343;29;20218;-75
2022/06/19 16:01:28;;;;;;;10.18;3.00;;;49.00;33.60;;;;;;4907026;29;20052;-75
2022/06/19 16:03:58;;;;;;;16.20;3.65;;;48.80;34.00;;;;;;4908699;29;20040;-75
2022/06/19 16:06:45;;;;;;;10.35;3.40;;;48.90;33.60;;;;;;4903439;29;20035;-76
2022/06/19 16:09:14;;;;;;;12.32;3.42;;;48.20;33.70;;;;;;4891260;29;20036;-75
2022/06/19 16:11:51;;;;;;;11.10;3.40;;;48.70;33.80;;;;;;4908017;29;20275;-75
2022/06/19 16:14:22;;;;;;;12.63;4.45;;;48.20;34.10;;;;;;4908620;29;20036;-75
2022/06/19 16:16:58;;;;;;;11.73;3.97;;;48.00;34.20;;;;;;4908164;29;20040;-76
2022/06/19 16:19:30;;;;;;;10.75;3.72;;;48.60;33.80;;;;;;4906731;29;20349;-76
2022/06/19 16:22:04;;;;;;;9.73;2.90;;;47.60;34.10;;;;;;4907505;29;20036;-75
2022/06/19 16:25:01;;;;;;;10.95;3.20;;;48.10;34.10;;;;;;4907756;29;20043;-75
2022/06/19 16:27:30;;;;;;;9.27;3.40;;;48.30;33.70;;;;;;4890798;29;20322;-76
2022/06/19 16:30:01;;;;;;;12.85;4.28;;;49.00;33.40;;;;;;4908124;29;20036;-74
2022/06/19 16:32:35;;;;;;;11.95;3.97;;;48.10;33.80;;;;;;4907569;29;20040;-75
2022/06/19 16:44:12;;;;;;;7.72;3.30;;;49.40;36.80;;;;;;4889227;29;20066;-75
2022/06/19 16:46:51;;;;;;;7.85;3.05;;;49.90;36.70;;;;;;4888258;29;20041;-76
2022/06/19 16:49:23;;;;;;;11.77;3.30;;;50.50;36.60;;;;;;4889287;29;20101;-75
2022/06/19 16:51:52;;;;;;;8.68;3.47;;;50.70;36.40;;;;;;4888366;29;20279;-75
2022/06/19 16:54:30;;;;;;;9.10;3.10;;;50.50;36.50;;;;;;4888216;29;20039;-75
2022/06/19 16:57:13;;;;;;;11.40;3.10;;;51.00;37.10;;;;;;4889093;29;20101;-75
2022/06/19 16:59:40;;;;;;;10.25;3.53;;;50.80;36.30;;;;;;4888801;29;20389;-75
2022/06/19 17:02:15;;;;;;;8.02;3.60;;;50.50;36.40;;;;;;4888313;29;20223;-76
2022/06/19 17:04:42;;;;;;;8.57;3.20;;;50.10;36.60;;;;;;4888600;29;20044;-76
2022/06/19 17:07:09;;;;;;;8.43;3.60;;;49.90;36.90;;;;;;4895921;29;20061;-76
2022/06/19 17:09:39;;;;;;;7.00;3.40;;;49.50;37.00;;;;;;4907371;29;20072;-76
2022/06/19 17:12:22;;;;;;;16.90;4.28;;;49.60;37.00;;;;;;4907449;29;20039;-76
2022/06/19 17:14:54;;;;;;;9.90;3.60;;;49.20;37.20;;;;;;4907916;29;20099;-76
2022/06/19 17:17:32;;;;;;;8.00;2.92;;;49.10;37.20;;;;;;4905541;29;20048;-75
2022/06/19 17:20:14;;;;;;;11.65;3.42;;;49.30;37.10;;;;;;4907454;29;20390;-75
2022/06/19 17:22:46;;;;;;;10.13;4.03;;;49.40;37.00;;;;;;4907031;29;20032;-75
2022/06/19 17:25:18;;;;;;;8.10;3.60;;;49.40;36.90;;;;;;4906214;29;20353;-75
2022/06/19 17:27:53;;;;;;;8.98;3.40;;;48.80;37.10;;;;;;4905619;29;20352;-76
2022/06/19 17:30:25;;;;;;;10.90;4.07;;;48.70;37.40;;;;;;4906462;29;20032;-75
2022/06/19 17:32:53;;;;;;;9.48;3.50;;;48.50;37.50;;;;;;4907153;29;20059;-75
2022/06/19 17:35:36;;;;;;;10.10;3.97;;;48.40;37.70;;;;;;4906069;29;20047;-75
2022/06/19 17:38:05;;;;;;;8.25;3.47;;;48.20;37.80;;;;;;4906990;29;20040;-75
2022/06/19 17:40:35;;;;;;;11.88;3.72;;;48.00;37.80;;;;;;4906408;29;20057;-74
2022/06/19 17:43:04;;;;;;;8.60;2.83;;;47.40;38.10;;;;;;4905845;29;20039;-76
2022/06/19 17:45:33;;;;;;;9.57;3.78;;;46.80;37.70;;;;;;4904582;29;20239;-75
2022/06/19 17:48:00;;;;;;;8.93;3.25;;;46.10;38.00;;;;;;4907046;29;20024;-76
2022/06/19 17:50:44;;;;;;;14.13;4.00;;;45.80;38.30;;;;;;4906495;29;20188;-77
2022/06/19 17:53:32;;;;;;;8.57;3.17;;;45.90;38.50;;;;;;4907068;29;20040;-76
2022/06/19 17:55:58;;;;;;;9.15;3.42;;;45.50;38.80;;;;;;4907061;29;20037;-75
2022/06/19 17:58:24;;;;;;;10.57;3.83;;;45.10;38.80;;;;;;4906083;29;20032;-75
2022/06/19 18:00:58;;;;;;;9.37;3.07;;;44.90;39.30;;;;;;4904860;29;20048;-75
2022/06/19 18:03:28;;;;;;;8.75;3.47;;;45.00;39.50;;;;;;4906464;29;20044;-76
2022/06/19 18:05:55;;;;;;;11.02;4.50;;;44.90;39.30;;;;;;4905028;29;20040;-74
2022/06/19 18:08:33;;;;;;;8.23;3.75;;;44.90;39.60;;;;;;4904135;29;20037;-75
2022/06/19 18:11:14;;;;;;;9.55;3.53;;;44.90;39.50;;;;;;4905697;29;20044;-76
2022/06/19 18:13:49;;;;;;;8.40;4.07;;;44.60;39.60;;;;;;4905816;29;20059;-75
2022/06/19 18:19:01;;;;;;;9.37;3.77;;;43.90;39.80;;;;;;4906445;29;20064;-76
2022/06/19 18:21:31;;;;;;;15.05;3.85;;;43.20;40.20;;;;;;4905918;29;20135;-75
2022/06/19 18:24:02;;;;;;;8.52;3.80;;;42.90;40.80;;;;;;4905382;29;20115;-75
2022/06/19 18:26:42;;;;;;;7.80;3.28;;;42.80;41.40;;;;;;4905855;29;20036;-75
2022/06/19 18:29:23;;;;;;;9.65;3.50;;;42.50;40.90;;;;;;4906715;29;20032;-75
2022/06/19 18:31:55;;;;;;;11.57;4.90;;;42.20;41.30;;;;;;4905427;29;20147;-76
2022/06/19 18:34:21;;;;;;;10.40;4.30;;;42.00;41.90;;;;;;4906357;29;20043;-76
2022/06/19 18:36:49;;;;;;;12.73;4.32;;;41.50;41.80;;;;;;4905684;29;20377;-76
2022/06/19 18:39:25;;;;;;;8.98;4.25;;;40.80;42.40;;;;;;4906523;29;20184;-75
2022/06/19 18:41:52;;;;;;;9.37;4.43;;;40.30;42.90;;;;;;4906216;29;20255;-76